Time;durP1;ratioP1;P1;durP2;ratioP2;P2;SDS_P1;SDS_P2;PMS_P1;PMS_P2;Temp;Humidity;BMP_temperature;BMP_pressure;BME280_temperature;BME280_humidity;BME280_pressure;Samples;Min_cycle;Max_cycle;Signal;HPM_P1;HPM_P2
2023/02/19 00:01:19;;;;;;;3.78;0.95;;;;;;;;;;5051739;28;20024;-68
2023/02/19 00:03:50;;;;;;;1.35;0.60;;;;;;;;;;5035872;28;20033;-68
2023/02/19 00:06:16;;;;;;;2.97;0.77;;;;;;;;;;5031646;28;20026;-68
2023/02/19 00:08:42;;;;;;;3.08;0.80;;;;;;;;;;5033885;28;20039;-68
2023/02/19 00:11:13;;;;;;;3.45;0.88;;;;;;;;;;5050111;28;20029;-67
2023/02/19 00:13:40;;;;;;;2.70;0.80;;;;;;;;;;5030697;28;20497;-67
2023/02/19 00:16:07;;;;;;;3.28;0.80;;;;;;;;;;5039118;28;20028;-68
2023/02/19 00:18:33;;;;;;;3.03;1.00;;;;;;;;;;5050663;28;20032;-67
2023/02/19 00:21:00;;;;;;;3.17;1.05;;;;;;;;;;5035677;28;20029;-67
2023/02/19 00:23:26;;;;;;;2.85;0.60;;;;;;;;;;5030540;28;20030;-67
2023/02/19 00:25:52;;;;;;;3.03;0.95;;;;;;;;;;5036877;28;20020;-67
2023/02/19 00:28:18;;;;;;;4.20;1.25;;;;;;;;;;5051272;28;20389;-67
2023/02/19 00:30:44;;;;;;;2.50;0.90;;;;;;;;;;5037280;28;20033;-67
2023/02/19 00:33:10;;;;;;;3.15;0.93;;;;;;;;;;5031097;28;20053;-67
2023/02/19 00:35:37;;;;;;;3.58;1.15;;;;;;;;;;5030690;28;20394;-67
2023/02/19 00:38:03;;;;;;;2.35;1.00;;;;;;;;;;5031054;28;20033;-67
2023/02/19 00:40:29;;;;;;;7.35;1.23;;;;;;;;;;5030780;28;20048;-67
2023/02/19 00:42:55;;;;;;;3.13;0.90;;;;;;;;;;5043686;28;20401;-67
2023/02/19 00:45:21;;;;;;;3.72;1.08;;;;;;;;;;5050547;28;20021;-67
2023/02/19 00:47:47;;;;;;;5.80;1.33;;;;;;;;;;5051176;28;20021;-68
2023/02/19 00:50:13;;;;;;;1.67;0.65;;;;;;;;;;5050841;28;20100;-67
2023/02/19 00:52:39;;;;;;;5.50;1.10;;;;;;;;;;5050390;28;20037;-67
2023/02/19 00:55:05;;;;;;;3.22;1.00;;;;;;;;;;5050571;28;20075;-67
2023/02/19 00:57:31;;;;;;;4.60;1.25;;;;;;;;;;5050501;28;20509;-67
2023/02/19 00:59:57;;;;;;;7.00;1.15;;;;;;;;;;5051968;28;20060;-67
2023/02/19 01:02:23;;;;;;;3.92;1.27;;;;;;;;;;5035595;28;20501;-67
2023/02/19 01:04:49;;;;;;;3.22;1.20;;;;;;;;;;5034979;28;20029;-67
2023/02/19 01:07:15;;;;;;;3.47;0.95;;;;;;;;;;5034546;28;20112;-67
2023/02/19 01:09:41;;;;;;;3.33;0.95;;;;;;;;;;5033918;28;20409;-67
2023/02/19 01:12:07;;;;;;;3.35;1.10;;;;;;;;;;5034069;28;20049;-67
2023/02/19 01:14:33;;;;;;;4.22;1.17;;;;;;;;;;5033752;28;20036;-66
2023/02/19 01:16:59;;;;;;;3.63;0.80;;;;;;;;;;5034120;28;20370;-66
2023/02/19 01:19:25;;;;;;;3.85;1.13;;;;;;;;;;5033870;28;20033;-67
2023/02/19 01:21:51;;;;;;;4.20;1.00;;;;;;;;;;5034229;28;20033;-66
2023/02/19 01:24:17;;;;;;;4.47;1.00;;;;;;;;;;5034309;28;20087;-66
2023/02/19 01:26:43;;;;;;;4.07;1.13;;;;;;;;;;5033527;28;20029;-66
2023/02/19 01:29:09;;;;;;;4.05;1.05;;;;;;;;;;5033890;28;20477;-66
2023/02/19 01:31:35;;;;;;;4.70;1.40;;;;;;;;;;5033318;28;20032;-66
2023/02/19 01:34:02;;;;;;;3.33;0.93;;;;;;;;;;5046761;28;20462;-66
2023/02/19 01:36:29;;;;;;;3.78;1.17;;;;;;;;;;5053750;28;20039;-66
2023/02/19 01:38:55;;;;;;;4.95;1.10;;;;;;;;;;5034102;28;20032;-66
2023/02/19 01:41:23;;;;;;;4.38;1.15;;;;;;;;;;5033516;28;20421;-66
2023/02/19 01:43:59;;;;;;;5.85;1.65;;;;;;;;;;5034022;28;20033;-66
2023/02/19 01:46:26;;;;;;;7.00;1.50;;;;;;;;;;5033649;28;20021;-66
2023/02/19 01:48:53;;;;;;;3.95;0.80;;;;;;;;;;5035342;28;20033;-66
2023/02/19 01:51:19;;;;;;;6.07;1.20;;;;;;;;;;5053729;28;20511;-66
2023/02/19 01:53:47;;;;;;;5.47;1.10;;;;;;;;;;5054127;28;20021;-66
2023/02/19 01:56:13;;;;;;;6.55;1.40;;;;;;;;;;5053496;28;20130;-66
2023/02/19 01:58:40;;;;;;;5.53;1.38;;;;;;;;;;5053323;28;20021;-68
2023/02/19 02:01:07;;;;;;;5.22;1.48;;;;;;;;;;5053596;28;20029;-66
2023/02/19 02:03:35;;;;;;;4.13;0.95;;;;;;;;;;5044777;28;20489;-66
2023/02/19 02:06:09;;;;;;;4.03;1.17;;;;;;;;;;5033300;28;20110;-66
2023/02/19 02:11:20;;;;;;;5.18;1.27;;;;;;;;;;5032663;28;20049;-66
2023/02/19 02:13:46;;;;;;;4.50;1.17;;;;;;;;;;5033545;28;20166;-66
2023/02/19 02:16:31;;;;;;;6.30;1.50;;;;;;;;;;5033148;28;20025;-65
2023/02/19 02:19:19;;;;;;;5.95;1.38;;;;;;;;;;5033296;28;20029;-66
2023/02/19 02:21:51;;;;;;;4.90;1.65;;;;;;;;;;5032824;28;20545;-66
2023/02/19 02:24:32;;;;;;;4.82;1.35;;;;;;;;;;5032643;28;20136;-65
2023/02/19 02:27:17;;;;;;;5.95;1.40;;;;;;;;;;5015359;28;20133;-65
2023/02/19 02:30:01;;;;;;;5.35;1.52;;;;;;;;;;5032019;28;20486;-65
2023/02/19 02:32:32;;;;;;;5.63;1.70;;;;;;;;;;5032372;28;20041;-65
2023/02/19 02:35:00;;;;;;;6.13;1.45;;;;;;;;;;5032397;28;20024;-65
2023/02/19 02:37:27;;;;;;;4.38;1.17;;;;;;;;;;5048779;28;20072;-65
2023/02/19 02:39:55;;;;;;;7.13;1.42;;;;;;;;;;5049618;28;20068;-65
2023/02/19 02:42:27;;;;;;;6.20;1.67;;;;;;;;;;5032841;28;20497;-65
2023/02/19 02:47:43;;;;;;;9.67;2.10;;;;;;;;;;5032728;28;20113;-66
2023/02/19 02:50:11;;;;;;;5.13;1.27;;;;;;;;;;5032733;28;20025;-66
2023/02/19 02:55:26;;;;;;;7.53;1.27;;;;;;;;;;5052043;28;20043;-66
2023/02/19 02:57:52;;;;;;;5.63;1.70;;;;;;;;;;5052573;28;20020;-66
2023/02/19 03:00:18;;;;;;;6.38;1.60;;;;;;;;;;5052789;28;20466;-66
2023/02/19 03:02:44;;;;;;;7.22;1.60;;;;;;;;;;5051943;28;20074;-67
2023/02/19 03:08:00;;;;;;;5.78;1.60;;;;;;;;;;5052362;28;20052;-65
2023/02/19 03:10:30;;;;;;;6.28;1.67;;;;;;;;;;5051941;28;20044;-66
2023/02/19 03:21:16;;;;;;;5.70;1.13;;;;;;;;;;5052245;28;20091;-66
2023/02/19 03:26:27;;;;;;;5.78;1.20;;;;;;;;;;5051640;28;20091;-66
2023/02/19 03:31:39;;;;;;;6.78;1.42;;;;;;;;;;5024234;28;20121;-66
2023/02/19 03:34:09;;;;;;;8.48;1.75;;;;;;;;;;5031412;28;20033;-67
2023/02/19 03:36:39;;;;;;;5.55;1.67;;;;;;;;;;5031202;28;20029;-66
2023/02/19 03:39:07;;;;;;;7.40;1.85;;;;;;;;;;5031586;28;20561;-66
2023/02/19 03:41:35;;;;;;;5.93;1.98;;;;;;;;;;5031285;28;20478;-69
2023/02/19 03:44:08;;;;;;;9.13;2.08;;;;;;;;;;5031816;28;20112;-71
2023/02/19 03:46:52;;;;;;;6.57;1.40;;;;;;;;;;5031043;28;20029;-71
2023/02/19 03:49:24;;;;;;;9.40;1.90;;;;;;;;;;5031930;28;20030;-71
2023/02/19 03:51:53;;;;;;;7.28;1.63;;;;;;;;;;5031098;28;20091;-71
2023/02/19 03:54:31;;;;;;;7.75;2.15;;;;;;;;;;5031770;28;20108;-72
2023/02/19 03:57:08;;;;;;;4.80;1.13;;;;;;;;;;5030979;28;20444;-71
2023/02/19 03:59:53;;;;;;;6.15;1.92;;;;;;;;;;5031024;28;20030;-71
2023/02/19 04:02:24;;;;;;;6.38;1.92;;;;;;;;;;5031118;28;20087;-71
2023/02/19 04:04:54;;;;;;;8.48;2.08;;;;;;;;;;5031627;28;20029;-71
2023/02/19 04:07:21;;;;;;;6.53;1.42;;;;;;;;;;5031060;28;20556;-71
2023/02/19 04:09:49;;;;;;;10.32;1.80;;;;;;;;;;5031267;28;20493;-71
2023/02/19 04:12:16;;;;;;;7.25;1.50;;;;;;;;;;5030868;28;20064;-71
2023/02/19 04:14:59;;;;;;;8.30;2.00;;;;;;;;;;5030932;28;20109;-71
2023/02/19 04:17:37;;;;;;;5.07;1.23;;;;;;;;;;5030776;28;20033;-72
2023/02/19 04:20:05;;;;;;;6.05;1.25;;;;;;;;;;5031136;28;20032;-72
2023/02/19 04:22:31;;;;;;;7.80;1.58;;;;;;;;;;5030595;28;20047;-72
2023/02/19 04:24:57;;;;;;;6.65;1.60;;;;;;;;;;5030529;28;20515;-71
2023/02/19 04:27:23;;;;;;;7.00;1.80;;;;;;;;;;5030671;28;20029;-71
2023/02/19 04:29:49;;;;;;;6.35;1.27;;;;;;;;;;5031038;28;20028;-71
2023/02/19 04:32:15;;;;;;;6.97;1.90;;;;;;;;;;5030889;28;20077;-71
2023/02/19 04:34:41;;;;;;;8.35;1.95;;;;;;;;;;5029467;28;20079;-71
2023/02/19 04:37:07;;;;;;;4.93;1.77;;;;;;;;;;5030435;28;20037;-71
2023/02/19 04:39:33;;;;;;;5.63;1.45;;;;;;;;;;5047371;28;20499;-71
2023/02/19 04:41:59;;;;;;;7.22;1.83;;;;;;;;;;5046949;28;20159;-71
2023/02/19 04:44:25;;;;;;;6.72;1.67;;;;;;;;;;5030441;28;20075;-71
2023/02/19 04:46:51;;;;;;;4.05;1.63;;;;;;;;;;5031028;28;20375;-71
2023/02/19 04:49:17;;;;;;;5.80;1.52;;;;;;;;;;5031072;28;20029;-71
2023/02/19 04:51:43;;;;;;;6.22;1.60;;;;;;;;;;5030526;28;20518;-70
2023/02/19 04:54:09;;;;;;;4.68;1.75;;;;;;;;;;5034311;28;20046;-70
2023/02/19 04:56:35;;;;;;;6.65;1.60;;;;;;;;;;5050422;28;20078;-70
2023/02/19 04:59:01;;;;;;;6.45;1.73;;;;;;;;;;5050792;28;20048;-70
2023/02/19 05:01:27;;;;;;;7.25;1.77;;;;;;;;;;5050163;28;20040;-70
2023/02/19 05:03:53;;;;;;;7.15;1.65;;;;;;;;;;5045903;28;20025;-70
2023/02/19 05:06:19;;;;;;;4.70;1.73;;;;;;;;;;5030170;28;20088;-70
2023/02/19 05:08:45;;;;;;;7.90;1.83;;;;;;;;;;5029605;28;20401;-70
2023/02/19 05:11:12;;;;;;;6.07;1.77;;;;;;;;;;5030225;28;20112;-70
2023/02/19 05:13:38;;;;;;;6.13;1.70;;;;;;;;;;5030255;28;20396;-70
2023/02/19 05:16:06;;;;;;;7.47;1.55;;;;;;;;;;5030265;28;20367;-70
2023/02/19 05:18:33;;;;;;;6.13;1.98;;;;;;;;;;5030042;28;20033;-70
2023/02/19 05:20:59;;;;;;;5.28;1.60;;;;;;;;;;5030185;28;20135;-70
2023/02/19 05:23:26;;;;;;;7.97;1.77;;;;;;;;;;5030091;28;20057;-70
2023/02/19 05:25:52;;;;;;;8.43;1.92;;;;;;;;;;5030082;28;20028;-70
2023/02/19 05:28:18;;;;;;;7.30;1.55;;;;;;;;;;5030840;28;20029;-69
2023/02/19 05:30:45;;;;;;;6.05;1.63;;;;;;;;;;5028602;28;20099;-70
2023/02/19 05:33:12;;;;;;;5.30;1.30;;;;;;;;;;5030006;28;20528;-70
2023/02/19 05:35:46;;;;;;;4.35;1.40;;;;;;;;;;5029820;28;20034;-70
2023/02/19 05:38:12;;;;;;;8.93;1.50;;;;;;;;;;5030180;28;20033;-70
2023/02/19 05:40:38;;;;;;;6.18;1.55;;;;;;;;;;5029946;28;20017;-70
2023/02/19 05:43:05;;;;;;;6.80;1.45;;;;;;;;;;5030023;28;20044;-70
2023/02/19 05:45:31;;;;;;;4.65;1.50;;;;;;;;;;5029224;28;20025;-70
2023/02/19 05:47:57;;;;;;;9.00;2.00;;;;;;;;;;5033246;28;20108;-70
2023/02/19 05:50:23;;;;;;;5.93;2.17;;;;;;;;;;5033018;28;20029;-70
2023/02/19 05:52:49;;;;;;;6.72;1.80;;;;;;;;;;5032695;28;20498;-70
2023/02/19 05:55:16;;;;;;;7.50;1.75;;;;;;;;;;5033958;28;20027;-70
2023/02/19 05:57:45;;;;;;;6.07;1.75;;;;;;;;;;5033257;28;20107;-70
2023/02/19 06:00:12;;;;;;;7.47;2.08;;;;;;;;;;5033527;28;20025;-70
2023/02/19 06:02:38;;;;;;;4.25;1.23;;;;;;;;;;5033422;28;20034;-70
2023/02/19 06:05:05;;;;;;;6.38;1.98;;;;;;;;;;5033023;28;20083;-70
2023/02/19 06:07:31;;;;;;;7.15;1.65;;;;;;;;;;5032920;28;20021;-70
2023/02/19 06:09:57;;;;;;;6.15;1.80;;;;;;;;;;5032090;28;20394;-69
2023/02/19 06:12:23;;;;;;;6.40;1.70;;;;;;;;;;5032413;28;20060;-70
2023/02/19 06:14:50;;;;;;;6.13;1.48;;;;;;;;;;5033336;28;20495;-69
2023/02/19 06:17:16;;;;;;;6.47;1.90;;;;;;;;;;5033567;28;20041;-69
2023/02/19 06:19:42;;;;;;;4.05;1.35;;;;;;;;;;5032698;28;20115;-69
2023/02/19 06:22:08;;;;;;;6.07;1.63;;;;;;;;;;5032820;28;20025;-69
2023/02/19 06:24:36;;;;;;;7.30;1.52;;;;;;;;;;5032758;28;20017;-69
2023/02/19 06:27:05;;;;;;;6.45;1.55;;;;;;;;;;5032979;28;20030;-69
2023/02/19 06:29:31;;;;;;;5.50;1.50;;;;;;;;;;5032163;28;20033;-69
2023/02/19 06:31:57;;;;;;;4.55;1.15;;;;;;;;;;5032782;28;20041;-69
2023/02/19 06:34:23;;;;;;;5.78;1.60;;;;;;;;;;5033303;28;20028;-69
2023/02/19 06:36:49;;;;;;;5.88;2.13;;;;;;;;;;5053115;28;20033;-69
2023/02/19 06:39:15;;;;;;;7.05;1.83;;;;;;;;;;5044913;28;20486;-69
2023/02/19 06:41:41;;;;;;;6.57;1.85;;;;;;;;;;5032422;28;20041;-69
2023/02/19 06:44:07;;;;;;;7.07;2.13;;;;;;;;;;5032952;28;20470;-69
2023/02/19 06:46:34;;;;;;;5.90;1.50;;;;;;;;;;5032721;28;20412;-69
2023/02/19 06:49:00;;;;;;;6.72;1.65;;;;;;;;;;5032777;28;20405;-69
2023/02/19 06:51:28;;;;;;;4.43;1.48;;;;;;;;;;5040185;28;20029;-69
2023/02/19 06:53:54;;;;;;;4.60;1.35;;;;;;;;;;5052598;28;20025;-69
2023/02/19 06:56:21;;;;;;;3.92;1.10;;;;;;;;;;5052369;28;20109;-69
2023/02/19 06:58:47;;;;;;;6.07;1.52;;;;;;;;;;5052279;28;20025;-69
2023/02/19 07:01:13;;;;;;;5.88;1.30;;;;;;;;;;5052601;28;20107;-69
2023/02/19 07:03:39;;;;;;;5.28;1.75;;;;;;;;;;5052054;28;20033;-69
2023/02/19 07:06:05;;;;;;;6.07;1.30;;;;;;;;;;5052211;28;20036;-69
2023/02/19 07:08:31;;;;;;;6.68;1.50;;;;;;;;;;5043797;28;20029;-69
2023/02/19 07:10:58;;;;;;;4.40;1.27;;;;;;;;;;5031806;28;20034;-69
2023/02/19 07:13:27;;;;;;;6.25;1.85;;;;;;;;;;5031427;28;20034;-69
2023/02/19 07:16:03;;;;;;;7.07;1.48;;;;;;;;;;5031977;28;20075;-69
2023/02/19 07:18:30;;;;;;;4.47;1.17;;;;;;;;;;5032002;28;20088;-69
2023/02/19 07:21:07;;;;;;;6.80;1.88;;;;;;;;;;5031979;28;20079;-69
2023/02/19 07:23:33;;;;;;;6.53;2.03;;;;;;;;;;5031325;28;20029;-69
2023/02/19 07:25:59;;;;;;;4.15;1.30;;;;;;;;;;5031795;28;20037;-69
2023/02/19 07:28:25;;;;;;;7.80;1.70;;;;;;;;;;5032014;28;20072;-69
2023/02/19 07:30:51;;;;;;;6.25;1.58;;;;;;;;;;5031731;28;20037;-69
2023/02/19 07:33:17;;;;;;;5.03;1.15;;;;;;;;;;5031637;28;20073;-69
2023/02/19 07:35:50;;;;;;;4.70;1.20;;;;;;;;;;5031417;28;20367;-69
2023/02/19 07:38:19;;;;;;;6.00;2.00;;;;;;;;;;5031455;28;20541;-69
2023/02/19 07:40:51;;;;;;;5.82;2.05;;;;;;;;;;5031530;28;20553;-69
2023/02/19 07:43:17;;;;;;;5.93;1.50;;;;;;;;;;5032197;28;20389;-69
2023/02/19 07:45:43;;;;;;;4.32;1.27;;;;;;;;;;5031212;28;20058;-67
2023/02/19 07:48:09;;;;;;;8.13;1.77;;;;;;;;;;5031120;28;20512;-68
2023/02/19 07:50:35;;;;;;;5.15;1.45;;;;;;;;;;5030394;28;20032;-68
2023/02/19 07:53:01;;;;;;;5.65;1.20;;;;;;;;;;5031356;28;20395;-69
2023/02/19 07:55:27;;;;;;;3.97;1.27;;;;;;;;;;5031026;28;20051;-68
2023/02/19 07:57:53;;;;;;;9.10;2.10;;;;;;;;;;5031378;28;20402;-69
2023/02/19 08:00:19;;;;;;;5.05;1.55;;;;;;;;;;5031690;28;20037;-70
2023/02/19 08:03:01;;;;;;;4.28;1.50;;;;;;;;;;5031478;28;20029;-69
2023/02/19 08:05:27;;;;;;;5.78;1.42;;;;;;;;;;5030069;28;20504;-68
2023/02/19 08:07:54;;;;;;;4.07;1.45;;;;;;;;;;5031255;28;20021;-70
2023/02/19 08:13:23;;;;;;;10.57;1.42;;;;;;;;;;5031184;28;20047;-70
2023/02/19 08:15:51;;;;;;;7.80;1.67;;;;;;;;;;5031293;28;20100;-68
2023/02/19 08:18:18;;;;;;;8.63;1.83;;;;;;;;;;5031338;28;20507;-69
2023/02/19 08:20:44;;;;;;;5.78;1.70;;;;;;;;;;5030701;28;20147;-67
2023/02/19 08:23:11;;;;;;;4.40;1.15;;;;;;;;;;5030614;28;20452;-67
2023/02/19 08:25:37;;;;;;;6.50;1.45;;;;;;;;;;5030447;28;20116;-68
2023/02/19 08:28:04;;;;;;;5.82;1.42;;;;;;;;;;5030916;28;20152;-68
2023/02/19 08:30:30;;;;;;;7.65;1.70;;;;;;;;;;5030864;28;20014;-68
2023/02/19 08:32:57;;;;;;;7.95;1.83;;;;;;;;;;5029744;28;20037;-67
2023/02/19 08:35:23;;;;;;;6.50;1.90;;;;;;;;;;5030746;28;20071;-66
2023/02/19 08:37:49;;;;;;;7.22;1.77;;;;;;;;;;5030890;28;20029;-66
2023/02/19 08:40:15;;;;;;;7.97;2.15;;;;;;;;;;5031149;28;20077;-66
2023/02/19 08:42:42;;;;;;;6.85;2.10;;;;;;;;;;5030935;28;20104;-66
2023/02/19 08:45:08;;;;;;;11.30;2.25;;;;;;;;;;5030395;28;20028;-66
2023/02/19 08:47:35;;;;;;;11.52;2.13;;;;;;;;;;5030911;28;20105;-66
2023/02/19 08:50:01;;;;;;;9.30;1.88;;;;;;;;;;5031059;28;20022;-66
2023/02/19 08:52:27;;;;;;;8.95;1.80;;;;;;;;;;5030741;28;20095;-68
2023/02/19 08:54:53;;;;;;;9.05;2.30;;;;;;;;;;5030634;28;20482;-65
2023/02/19 08:57:19;;;;;;;8.88;2.42;;;;;;;;;;5031262;28;20105;-67
2023/02/19 08:59:45;;;;;;;9.73;2.22;;;;;;;;;;5031346;28;20049;-67
2023/02/19 09:02:11;;;;;;;8.43;2.00;;;;;;;;;;5029946;28;20100;-67
2023/02/19 09:04:38;;;;;;;5.72;1.80;;;;;;;;;;5030656;28;20029;-66
2023/02/19 09:07:09;;;;;;;18.75;2.35;;;;;;;;;;5030885;28;20470;-66
2023/02/19 09:09:38;;;;;;;10.70;2.50;;;;;;;;;;5030434;28;20120;-65
2023/02/19 09:12:08;;;;;;;10.27;2.75;;;;;;;;;;5030820;28;20042;-66
2023/02/19 09:14:35;;;;;;;10.80;2.53;;;;;;;;;;5029826;28;20079;-66
2023/02/19 09:17:02;;;;;;;9.55;2.17;;;;;;;;;;5048830;28;20064;-68
2023/02/19 09:19:28;;;;;;;7.97;2.00;;;;;;;;;;5050359;28;20027;-65
2023/02/19 09:21:54;;;;;;;7.13;2.20;;;;;;;;;;5053680;28;20025;-66
2023/02/19 09:24:20;;;;;;;8.25;2.28;;;;;;;;;;5045995;28;20029;-65
2023/02/19 09:26:50;;;;;;;11.23;2.30;;;;;;;;;;5041983;28;20163;-68
2023/02/19 09:29:16;;;;;;;8.90;2.58;;;;;;;;;;5054554;28;20017;-65
2023/02/19 09:31:42;;;;;;;9.05;2.30;;;;;;;;;;5038446;28;20029;-64
2023/02/19 09:34:08;;;;;;;10.98;2.17;;;;;;;;;;5034129;28;20541;-68
2023/02/19 09:36:35;;;;;;;8.95;2.53;;;;;;;;;;5033928;28;20048;-67
2023/02/19 09:39:01;;;;;;;5.97;2.25;;;;;;;;;;5033881;28;20358;-67
2023/02/19 09:41:29;;;;;;;8.48;2.15;;;;;;;;;;5033498;28;20025;-66
2023/02/19 09:43:57;;;;;;;8.23;1.85;;;;;;;;;;5034168;28;20060;-67
2023/02/19 09:46:23;;;;;;;13.10;2.25;;;;;;;;;;5032723;28;20478;-67
2023/02/19 09:48:50;;;;;;;10.00;2.20;;;;;;;;;;5034457;28;20033;-67
2023/02/19 09:51:16;;;;;;;13.73;2.22;;;;;;;;;;5034072;28;20025;-66
2023/02/19 09:53:45;;;;;;;14.55;2.38;;;;;;;;;;5033659;28;20367;-67
2023/02/19 09:56:11;;;;;;;15.80;3.05;;;;;;;;;;5034016;28;20022;-67
2023/02/19 09:58:48;;;;;;;17.67;2.30;;;;;;;;;;5033651;28;20444;-66
2023/02/19 10:01:14;;;;;;;9.63;2.17;;;;;;;;;;5033888;28;20021;-73
2023/02/19 10:03:43;;;;;;;12.38;2.55;;;;;;;;;;5033584;28;20029;-67
2023/02/19 10:06:21;;;;;;;12.82;2.40;;;;;;;;;;5033856;28;20018;-67
2023/02/19 10:08:49;;;;;;;8.82;2.10;;;;;;;;;;5030362;28;20049;-67
2023/02/19 10:11:15;;;;;;;7.13;1.90;;;;;;;;;;5025275;28;20525;-66
2023/02/19 10:13:54;;;;;;;6.75;2.00;;;;;;;;;;5015867;28;20633;-67
2023/02/19 10:16:23;;;;;;;16.08;2.20;;;;;;;;;;5016284;28;20021;-64
2023/02/19 10:18:49;;;;;;;10.35;2.35;;;;;;;;;;5016771;28;20040;-67
2023/02/19 10:21:20;;;;;;;12.23;2.40;;;;;;;;;;5018266;28;20026;-67
2023/02/19 10:23:48;;;;;;;12.38;2.17;;;;;;;;;;5020499;28;20461;-65
2023/02/19 10:26:14;;;;;;;10.00;2.03;;;;;;;;;;5020971;28;20032;-65
2023/02/19 10:28:40;;;;;;;9.85;2.95;;;;;;;;;;5017113;28;20025;-66
2023/02/19 10:31:16;;;;;;;6.38;2.15;;;;;;;;;;5017400;28;20032;-67
2023/02/19 10:33:49;;;;;;;7.68;1.98;;;;;;;;;;5016761;28;20033;-67
2023/02/19 10:36:27;;;;;;;10.43;1.90;;;;;;;;;;5023129;28;20044;-67
2023/02/19 10:38:53;;;;;;;11.10;2.00;;;;;;;;;;5018195;28;20509;-67
2023/02/19 10:41:21;;;;;;;8.57;1.80;;;;;;;;;;5018637;28;20022;-67
2023/02/19 10:44:10;;;;;;;7.45;1.70;;;;;;;;;;5018758;28;20022;-66
2023/02/19 10:46:41;;;;;;;7.80;1.52;;;;;;;;;;5031507;28;20037;-67
2023/02/19 10:49:19;;;;;;;6.85;1.48;;;;;;;;;;5019172;28;20425;-67
2023/02/19 10:51:46;;;;;;;10.57;2.03;;;;;;;;;;5019382;28;20042;-67
2023/02/19 10:54:20;;;;;;;7.03;1.75;;;;;;;;;;5025782;28;20401;-67
2023/02/19 10:56:46;;;;;;;5.88;1.58;;;;;;;;;;5020136;28;20514;-68
2023/02/19 10:59:25;;;;;;;6.30;1.90;;;;;;;;;;5024023;28;20034;-67
2023/02/19 11:01:54;;;;;;;6.93;1.83;;;;;;;;;;5020710;28;20018;-68
2023/02/19 11:04:20;;;;;;;6.32;1.60;;;;;;;;;;5026979;28;20028;-65
2023/02/19 11:06:46;;;;;;;8.82;1.60;;;;;;;;;;5021039;28;20042;-67
2023/02/19 11:09:25;;;;;;;7.97;1.40;;;;;;;;;;5020685;28;20116;-67
2023/02/19 11:11:51;;;;;;;4.78;1.35;;;;;;;;;;5021328;28;20030;-66
2023/02/19 11:14:18;;;;;;;8.35;1.92;;;;;;;;;;5028597;28;20025;-67
2023/02/19 11:16:47;;;;;;;6.50;1.70;;;;;;;;;;5022724;28;20098;-67
2023/02/19 11:19:22;;;;;;;9.20;1.70;;;;;;;;;;5021876;28;20025;-67
2023/02/19 11:21:49;;;;;;;9.38;2.92;;;;;;;;;;5022224;28;20498;-66
2023/02/19 11:24:32;;;;;;;9.48;1.73;;;;;;;;;;5029119;28;20131;-67
2023/02/19 11:27:00;;;;;;;5.00;1.40;;;;;;;;;;5022667;28;20084;-65
2023/02/19 11:29:27;;;;;;;7.10;1.77;;;;;;;;;;5022514;28;20030;-66
2023/02/19 11:31:54;;;;;;;6.75;1.73;;;;;;;;;;5023705;28;20506;-67
2023/02/19 11:34:23;;;;;;;5.70;1.45;;;;;;;;;;5029860;28;20033;-64
2023/02/19 11:37:09;;;;;;;5.82;1.10;;;;;;;;;;5025990;28;20048;-66
2023/02/19 11:39:36;;;;;;;3.63;1.40;;;;;;;;;;5023335;28;20032;-66
2023/02/19 11:42:11;;;;;;;7.28;1.63;;;;;;;;;;5032085;28;20037;-64
2023/02/19 11:44:55;;;;;;;6.70;1.75;;;;;;;;;;5025557;28;20029;-64
2023/02/19 11:47:27;;;;;;;5.43;1.33;;;;;;;;;;5027078;28;20444;-67
2023/02/19 11:49:53;;;;;;;3.53;1.13;;;;;;;;;;5027380;28;20097;-67
2023/02/19 11:52:39;;;;;;;6.28;1.77;;;;;;;;;;5039586;28;20124;-64
2023/02/19 11:55:05;;;;;;;5.22;1.95;;;;;;;;;;5025064;28;20026;-68
2023/02/19 11:57:37;;;;;;;5.03;1.98;;;;;;;;;;5025225;28;20368;-64
2023/02/19 12:00:15;;;;;;;3.40;1.08;;;;;;;;;;5032024;28;20037;-67
2023/02/19 12:02:44;;;;;;;5.65;1.63;;;;;;;;;;5032463;28;20033;-67
2023/02/19 12:05:25;;;;;;;4.40;1.58;;;;;;;;;;5019914;28;20068;-66
2023/02/19 12:08:15;;;;;;;5.95;1.33;;;;;;;;;;5032651;28;20026;-67
2023/02/19 12:11:07;;;;;;;5.32;1.38;;;;;;;;;;5030441;28;20128;-67
2023/02/19 12:13:51;;;;;;;4.25;1.40;;;;;;;;;;5024208;28;20150;-66
2023/02/19 12:16:45;;;;;;;6.85;2.13;;;;;;;;;;5019297;28;20098;-64
2023/02/19 12:19:23;;;;;;;5.55;1.50;;;;;;;;;;5035175;28;20596;-65
2023/02/19 12:22:03;;;;;;;5.47;1.70;;;;;;;;;;5027920;28;20037;-65
2023/02/19 12:24:47;;;;;;;8.90;1.80;;;;;;;;;;5021497;28;20025;-64
2023/02/19 12:27:13;;;;;;;4.18;1.30;;;;;;;;;;5028852;28;20034;-64
2023/02/19 12:29:58;;;;;;;5.20;1.60;;;;;;;;;;5030919;28;20045;-67
2023/02/19 12:32:27;;;;;;;7.80;2.28;;;;;;;;;;5011027;28;20034;-67
2023/02/19 12:35:12;;;;;;;8.95;1.60;;;;;;;;;;5026280;28;20749;-67
2023/02/19 12:37:44;;;;;;;5.13;1.42;;;;;;;;;;5029160;28;20029;-62
2023/02/19 12:40:28;;;;;;;5.43;1.80;;;;;;;;;;5035520;28;20030;-63
2023/02/19 12:43:11;;;;;;;3.90;1.45;;;;;;;;;;5031799;28;20490;-62
2023/02/19 12:45:37;;;;;;;7.50;1.77;;;;;;;;;;5027366;28;20017;-63
2023/02/19 12:48:14;;;;;;;4.60;1.70;;;;;;;;;;5030951;28;20478;-63
2023/02/19 12:50:41;;;;;;;7.47;1.60;;;;;;;;;;5034544;28;20501;-63
2023/02/19 12:53:25;;;;;;;4.75;1.60;;;;;;;;;;5037018;28;20529;-62
2023/02/19 12:55:51;;;;;;;11.48;2.05;;;;;;;;;;5030453;28;20125;-62
2023/02/19 12:58:44;;;;;;;6.20;1.85;;;;;;;;;;5035391;28;20060;-62
2023/02/19 13:01:13;;;;;;;5.90;1.80;;;;;;;;;;5037205;28;20067;-62
2023/02/19 13:03:48;;;;;;;6.40;1.85;;;;;;;;;;5046785;28;20060;-62
2023/02/19 13:06:32;;;;;;;7.75;1.23;;;;;;;;;;5034862;28;20033;-62
2023/02/19 13:08:58;;;;;;;5.13;1.85;;;;;;;;;;5033424;28;20044;-62
2023/02/19 13:11:29;;;;;;;6.13;1.73;;;;;;;;;;5034083;28;20029;-62
2023/02/19 13:14:00;;;;;;;7.18;1.50;;;;;;;;;;5034071;28;20089;-62
2023/02/19 13:16:31;;;;;;;5.03;2.08;;;;;;;;;;5032858;28;20040;-62
2023/02/19 13:18:59;;;;;;;6.30;1.77;;;;;;;;;;5049376;28;20090;-62
2023/02/19 13:24:15;;;;;;;5.85;1.90;;;;;;;;;;5035997;28;20047;-62
2023/02/19 13:26:50;;;;;;;6.45;1.40;;;;;;;;;;5034143;28;20112;-62
2023/02/19 13:29:35;;;;;;;5.60;1.80;;;;;;;;;;5034733;28;20025;-62
2023/02/19 13:32:03;;;;;;;6.75;1.45;;;;;;;;;;5034330;28;20037;-62
2023/02/19 13:34:41;;;;;;;6.68;1.70;;;;;;;;;;5033532;28;20030;-62
2023/02/19 13:37:08;;;;;;;5.80;1.75;;;;;;;;;;5034348;28;20025;-60
2023/02/19 13:39:34;;;;;;;6.60;1.42;;;;;;;;;;5033734;28;20033;-60
2023/02/19 13:42:00;;;;;;;4.68;1.75;;;;;;;;;;5033179;28;20030;-60
2023/02/19 13:44:27;;;;;;;3.97;1.75;;;;;;;;;;5033197;28;20026;-60
2023/02/19 13:46:53;;;;;;;5.90;1.80;;;;;;;;;;5032997;28;20105;-61
2023/02/19 13:49:23;;;;;;;4.80;1.50;;;;;;;;;;5034400;28;20458;-60
2023/02/19 13:51:53;;;;;;;9.05;1.58;;;;;;;;;;5034218;28;20034;-60
2023/02/19 13:54:23;;;;;;;6.07;1.50;;;;;;;;;;5034078;28;20087;-60
2023/02/19 13:56:49;;;;;;;3.78;1.20;;;;;;;;;;5033770;28;20068;-60
2023/02/19 13:59:21;;;;;;;8.23;1.60;;;;;;;;;;5030131;28;20022;-60
2023/02/19 14:01:50;;;;;;;5.13;1.60;;;;;;;;;;5042388;28;20060;-61
2023/02/19 14:04:19;;;;;;;7.20;1.60;;;;;;;;;;5032774;28;20071;-59
2023/02/19 14:07:03;;;;;;;4.30;1.55;;;;;;;;;;5033013;28;20067;-62
2023/02/19 14:09:36;;;;;;;6.03;1.67;;;;;;;;;;5038398;28;20067;-60
2023/02/19 14:12:14;;;;;;;3.83;1.55;;;;;;;;;;5041610;28;20446;-59
2023/02/19 14:14:40;;;;;;;4.97;1.55;;;;;;;;;;5042072;28;20518;-59
2023/02/19 14:17:08;;;;;;;3.05;1.35;;;;;;;;;;5041617;28;20374;-60
2023/02/19 14:19:41;;;;;;;2.55;1.30;;;;;;;;;;5032338;28;20112;-59
2023/02/19 14:22:25;;;;;;;3.25;1.23;;;;;;;;;;5030645;28;20038;-59
2023/02/19 14:24:55;;;;;;;4.18;1.27;;;;;;;;;;5030938;28;20022;-59
2023/02/19 14:27:21;;;;;;;2.50;1.30;;;;;;;;;;5032562;28;20029;-59
2023/02/19 14:29:47;;;;;;;5.18;1.73;;;;;;;;;;5032712;28;20523;-59
2023/02/19 14:32:18;;;;;;;3.70;1.25;;;;;;;;;;5032446;28;20113;-60
2023/02/19 14:34:44;;;;;;;4.20;1.27;;;;;;;;;;5032213;28;20386;-60
2023/02/19 14:37:19;;;;;;;3.50;1.45;;;;;;;;;;5032364;28;20026;-60
2023/02/19 14:39:45;;;;;;;6.45;1.88;;;;;;;;;;5029890;28;20024;-61
2023/02/19 14:42:17;;;;;;;6.50;1.95;;;;;;;;;;5032136;28;20033;-60
2023/02/19 14:45:03;;;;;;;4.35;1.10;;;;;;;;;;5031923;28;20021;-59
2023/02/19 14:47:33;;;;;;;2.65;1.02;;;;;;;;;;5029748;28;20025;-59
2023/02/19 14:50:06;;;;;;;4.88;1.42;;;;;;;;;;5032090;28;20112;-59
2023/02/19 14:52:32;;;;;;;1.77;0.80;;;;;;;;;;5031458;28;20051;-60
2023/02/19 14:55:06;;;;;;;4.20;1.05;;;;;;;;;;5033898;28;20100;-60
2023/02/19 14:57:35;;;;;;;4.00;1.33;;;;;;;;;;5030203;28;20026;-60
2023/02/19 15:00:03;;;;;;;3.88;1.10;;;;;;;;;;5034002;28;20016;-60
2023/02/19 15:02:31;;;;;;;4.85;1.00;;;;;;;;;;5042461;28;20029;-59
2023/02/19 15:04:57;;;;;;;2.95;1.10;;;;;;;;;;5038261;28;20443;-60
2023/02/19 15:07:29;;;;;;;3.28;0.88;;;;;;;;;;5032741;28;20025;-59
2023/02/19 15:09:57;;;;;;;3.15;0.90;;;;;;;;;;5043087;28;20037;-59
2023/02/19 15:12:24;;;;;;;5.55;1.20;;;;;;;;;;5041955;28;20112;-61
2023/02/19 15:14:52;;;;;;;4.30;0.90;;;;;;;;;;5044261;28;20104;-59
2023/02/19 15:17:38;;;;;;;4.63;1.10;;;;;;;;;;5045712;28;20166;-59
2023/02/19 15:20:08;;;;;;;2.22;0.90;;;;;;;;;;5044224;28;20029;-60
2023/02/19 15:22:34;;;;;;;3.35;1.42;;;;;;;;;;5032196;28;20578;-60
2023/02/19 15:25:04;;;;;;;2.97;0.90;;;;;;;;;;5032286;28;20025;-60
2023/02/19 15:27:31;;;;;;;2.35;0.98;;;;;;;;;;5040942;28;20401;-60